Search for airport 
image banner adimage banner adimage banner ad
image banner ad

KSMX - Santa Maria Pub/Capt G Allan Hancock Fld

Located in Santa Maria, United States

ICAO - SMX, IATA - SMX

Data provided by Airmate  

General information

Coordinates: N34°53'60" W120°27'29"
Elevation is 261 feet MSL.
Magnetic variation is 14° East
View others Airports in California

Operational data

Special qualification required
Current time UTC:
Current local time:
Weather
METAR: KSMX 141251Z 00000KT 1/2SM R12/2600VP6000FT FG VV002 11/11 A2999 RMK AO2 SLP158 T01110106 $
TAF: KSMX 141212Z 1412/1512 VRB03KT 1/2SM FG OVC002 FM141500 VRB03KT 2SM BR OVC004 FM141700 30010KT P6SM SCT008 FM141900 30018G25KT P6SM SKC FM150300 30010KT P6SM SKC FM150700 VRB03KT P6SM SKC
View NOTAMs / SUP AIP / TFR affecting this airport [VIEW]
Communications frequencies: [VIEW]

Runways:

RWY identifierQFULength (ft)Width (ft)SurfaceLDA (ft)
0236°519975ASPH5199
20216°519975ASPH5199
12135°8004150ASPH8004
30315°8004150ASPH8004

Airport contact information

Address: Santa Maria United States

Satellite view of KSMX